Terminal Aerodrome Forecast
Issued by NWS Wilmington, OH

Current Version | Previous Version | Text Only | Print | Product List | Glossary Off
Versions: 1 2 3 4 5 6 7 8 9 10 11 12 13 14 15 16 17 18 19 20 21 22 23

647
FTUS41 KILN 271733
TAFDAY
TAF
KDAY 271733Z 2718/2818 VRB03KT P6SM SCT040
     FM280000 VRB04KT P6SM SCT120 BKN150
     FM281500 VRB04KT P6SM VCSH BKN040 BKN150=

USA.gov is the U.S. government's official web portal to all federal, state and local government web resources and services.